Time;durP1;ratioP1;P1;durP2;ratioP2;P2;SDS_P1;SDS_P2;PMS_P1;PMS_P2;Temp;Humidity;BMP_temperature;BMP_pressure;BME280_temperature;BME280_humidity;BME280_pressure;Samples;Min_cycle;Max_cycle;Signal;HPM_P1;HPM_P2
2022/08/16 00:00:14;;;;;;;9.90;4.85;;;;;;;;;;4359779;32;20086;-67
2022/08/16 00:02:42;;;;;;;11.75;4.70;;;;;;;;;;4359968;32;20109;-67
2022/08/16 00:05:10;;;;;;;12.07;4.70;;;;;;;;;;4359889;32;20083;-66
2022/08/16 00:07:37;;;;;;;12.65;4.95;;;;;;;;;;4359795;32;20153;-66
2022/08/16 00:10:06;;;;;;;11.52;4.37;;;;;;;;;;4359420;32;20155;-68
2022/08/16 00:12:33;;;;;;;7.57;4.28;;;;;;;;;;4359810;32;20509;-67
2022/08/16 00:15:07;;;;;;;8.55;4.32;;;;;;;;;;4360437;32;20492;-67
2022/08/16 00:17:33;;;;;;;6.68;4.10;;;;;;;;;;4361797;32;20515;-66
2022/08/16 00:20:00;;;;;;;8.63;3.97;;;;;;;;;;4360320;32;20101;-67
2022/08/16 00:22:27;;;;;;;11.23;3.97;;;;;;;;;;4359545;32;20534;-67
2022/08/16 00:24:54;;;;;;;8.63;4.20;;;;;;;;;;4361072;32;20067;-67
2022/08/16 00:27:22;;;;;;;9.05;4.37;;;;;;;;;;4361616;32;20083;-67
2022/08/16 00:29:49;;;;;;;7.40;3.90;;;;;;;;;;4360330;32;20167;-67
2022/08/16 00:32:16;;;;;;;10.15;4.10;;;;;;;;;;4362814;32;20089;-67
2022/08/16 00:34:42;;;;;;;9.82;3.90;;;;;;;;;;4363883;32;20145;-67
2022/08/16 00:37:09;;;;;;;9.23;4.30;;;;;;;;;;4363666;32;20162;-66
2022/08/16 00:39:36;;;;;;;9.25;4.07;;;;;;;;;;4363794;32;20081;-67
2022/08/16 00:42:03;;;;;;;8.35;4.45;;;;;;;;;;4368511;32;20085;-67
2022/08/16 00:44:30;;;;;;;8.52;3.80;;;;;;;;;;4376377;32;20570;-66
2022/08/16 00:47:07;;;;;;;8.68;3.80;;;;;;;;;;4380705;32;20587;-68
2022/08/16 00:49:35;;;;;;;10.48;3.75;;;;;;;;;;4392866;32;20078;-69
2022/08/16 00:52:02;;;;;;;8.95;3.87;;;;;;;;;;4379694;32;20082;-66
2022/08/16 00:54:30;;;;;;;8.98;3.37;;;;;;;;;;4380003;32;20086;-68
2022/08/16 00:56:59;;;;;;;7.03;3.35;;;;;;;;;;4394385;32;20081;-67
2022/08/16 00:59:28;;;;;;;5.78;3.50;;;;;;;;;;4392374;32;20093;-67
2022/08/16 01:01:55;;;;;;;6.22;3.50;;;;;;;;;;4392296;32;20069;-67
2022/08/16 01:04:24;;;;;;;5.28;3.20;;;;;;;;;;4379073;32;20514;-66
2022/08/16 01:06:51;;;;;;;7.37;3.37;;;;;;;;;;4392217;32;20546;-67
2022/08/16 01:09:18;;;;;;;5.65;3.60;;;;;;;;;;4391995;32;20145;-67
2022/08/16 01:11:45;;;;;;;7.47;3.53;;;;;;;;;;4379877;32;20132;-68
2022/08/16 01:14:28;;;;;;;4.72;3.08;;;;;;;;;;4391837;32;20076;-67
2022/08/16 01:16:55;;;;;;;11.50;3.83;;;;;;;;;;4392127;32;20089;-67
2022/08/16 01:19:26;;;;;;;7.95;4.47;;;;;;;;;;4392613;32;20152;-66
2022/08/16 01:22:24;;;;;;;7.70;3.95;;;;;;;;;;4394280;32;20487;-67
2022/08/16 01:24:55;;;;;;;10.70;3.78;;;;;;;;;;4378300;32;20516;-68
2022/08/16 01:27:46;;;;;;;8.05;3.70;;;;;;;;;;4392296;32;20144;-67
2022/08/16 01:30:23;;;;;;;10.40;3.80;;;;;;;;;;4386141;32;20108;-67
2022/08/16 01:32:51;;;;;;;11.15;4.70;;;;;;;;;;4366645;32;20155;-67
2022/08/16 01:35:22;;;;;;;9.52;3.45;;;;;;;;;;4379227;32;20090;-66
2022/08/16 01:37:51;;;;;;;13.32;4.07;;;;;;;;;;4391786;32;20085;-67
2022/08/16 01:40:20;;;;;;;10.82;3.95;;;;;;;;;;4391639;32;20524;-67
2022/08/16 01:42:48;;;;;;;9.98;4.12;;;;;;;;;;4379072;32;20531;-68
2022/08/16 01:45:17;;;;;;;11.70;3.95;;;;;;;;;;4391162;32;20108;-66
2022/08/16 01:47:44;;;;;;;10.38;5.28;;;;;;;;;;4379106;32;20093;-68
2022/08/16 01:50:12;;;;;;;10.40;4.32;;;;;;;;;;4391426;32;20532;-66
2022/08/16 01:52:39;;;;;;;10.07;4.30;;;;;;;;;;4392636;32;20134;-66
2022/08/16 01:55:08;;;;;;;8.00;4.25;;;;;;;;;;4391563;32;20077;-66
2022/08/16 01:57:35;;;;;;;8.13;4.30;;;;;;;;;;4378955;32;20166;-67
2022/08/16 02:00:05;;;;;;;8.80;3.83;;;;;;;;;;4378717;32;20081;-67
2022/08/16 02:02:31;;;;;;;7.90;4.05;;;;;;;;;;4378565;32;20074;-68
2022/08/16 02:04:59;;;;;;;9.27;4.43;;;;;;;;;;4392912;32;20248;-67
2022/08/16 02:07:25;;;;;;;10.98;4.12;;;;;;;;;;4392752;32;20084;-67
2022/08/16 02:09:53;;;;;;;8.32;4.37;;;;;;;;;;4392364;32;20109;-66
2022/08/16 02:12:19;;;;;;;12.37;4.35;;;;;;;;;;4390955;32;20085;-67
2022/08/16 02:14:46;;;;;;;14.57;4.37;;;;;;;;;;4390937;32;20529;-68
2022/08/16 02:17:13;;;;;;;9.93;4.37;;;;;;;;;;4378294;32;20089;-67
2022/08/16 02:19:41;;;;;;;11.12;4.55;;;;;;;;;;4392600;32;20068;-68
2022/08/16 02:22:11;;;;;;;8.35;4.40;;;;;;;;;;4390813;32;20479;-67
2022/08/16 02:24:39;;;;;;;9.88;4.03;;;;;;;;;;4392492;32;20090;-68
2022/08/16 02:27:06;;;;;;;13.38;4.10;;;;;;;;;;4390784;32;20069;-66
2022/08/16 02:29:33;;;;;;;8.32;4.43;;;;;;;;;;4390913;32;20154;-67
2022/08/16 02:31:59;;;;;;;12.88;4.20;;;;;;;;;;4378485;32;20098;-68
2022/08/16 02:34:26;;;;;;;9.10;4.15;;;;;;;;;;4392062;32;20081;-68
2022/08/16 02:36:53;;;;;;;15.77;4.15;;;;;;;;;;4392198;32;20078;-67
2022/08/16 02:39:19;;;;;;;14.13;5.03;;;;;;;;;;4390809;32;20076;-67
2022/08/16 02:41:48;;;;;;;9.82;4.00;;;;;;;;;;4392032;32;20065;-68
2022/08/16 02:44:15;;;;;;;12.63;4.60;;;;;;;;;;4377751;32;20082;-67
2022/08/16 02:46:43;;;;;;;9.15;4.20;;;;;;;;;;4377774;32;20088;-67
2022/08/16 02:49:10;;;;;;;13.55;4.90;;;;;;;;;;4378356;32;20101;-67
2022/08/16 02:51:38;;;;;;;10.25;4.20;;;;;;;;;;4378262;32;20085;-67
2022/08/16 02:54:06;;;;;;;8.23;4.37;;;;;;;;;;4390157;32;20150;-68
2022/08/16 02:56:33;;;;;;;12.75;4.87;;;;;;;;;;4390418;32;20081;-68
2022/08/16 02:59:00;;;;;;;11.52;5.12;;;;;;;;;;4390127;32;20508;-68
2022/08/16 03:01:30;;;;;;;9.80;4.97;;;;;;;;;;4378101;32;20074;-67
2022/08/16 03:03:58;;;;;;;10.57;5.28;;;;;;;;;;4377944;32;20085;-67
2022/08/16 03:06:25;;;;;;;13.30;5.22;;;;;;;;;;4391728;32;20083;-67
2022/08/16 03:08:52;;;;;;;13.45;5.00;;;;;;;;;;4390370;32;20085;-67
2022/08/16 03:11:19;;;;;;;12.05;4.90;;;;;;;;;;4390126;32;20078;-67
2022/08/16 03:13:48;;;;;;;12.43;5.15;;;;;;;;;;4390268;32;20065;-68
2022/08/16 03:16:16;;;;;;;14.02;4.80;;;;;;;;;;4390395;32;20085;-66
2022/08/16 03:18:42;;;;;;;16.12;5.60;;;;;;;;;;4392087;32;20107;-67
2022/08/16 03:21:09;;;;;;;15.60;5.90;;;;;;;;;;4390180;32;20464;-66
2022/08/16 03:23:36;;;;;;;17.58;6.55;;;;;;;;;;4390626;32;20081;-67
2022/08/16 03:26:03;;;;;;;15.77;6.45;;;;;;;;;;4394496;32;20081;-68
2022/08/16 03:28:29;;;;;;;10.63;6.03;;;;;;;;;;4395725;32;20581;-68
2022/08/16 03:30:56;;;;;;;16.42;6.05;;;;;;;;;;4391783;32;20073;-67
2022/08/16 03:33:23;;;;;;;17.60;6.78;;;;;;;;;;4391572;32;20062;-67
2022/08/16 03:35:50;;;;;;;15.90;6.78;;;;;;;;;;4391680;32;20089;-67
2022/08/16 03:38:18;;;;;;;14.95;5.90;;;;;;;;;;4389784;32;20066;-67
2022/08/16 03:40:45;;;;;;;14.05;5.20;;;;;;;;;;4390137;32;20168;-67
2022/08/16 03:43:12;;;;;;;17.67;6.10;;;;;;;;;;4389588;32;20543;-67
2022/08/16 03:45:39;;;;;;;11.90;6.07;;;;;;;;;;4392066;32;20085;-67
2022/08/16 03:48:08;;;;;;;16.42;6.65;;;;;;;;;;4390003;32;20178;-68
2022/08/16 03:50:35;;;;;;;14.63;6.03;;;;;;;;;;4390346;32;20561;-67
2022/08/16 03:53:02;;;;;;;13.70;5.62;;;;;;;;;;4389499;32;20468;-68
2022/08/16 03:55:28;;;;;;;18.40;6.47;;;;;;;;;;4389941;32;20165;-68
2022/08/16 03:57:55;;;;;;;12.50;5.78;;;;;;;;;;4391388;32;20073;-67
2022/08/16 04:00:26;;;;;;;13.65;5.50;;;;;;;;;;4391119;32;20185;-67
2022/08/16 04:02:55;;;;;;;11.35;4.97;;;;;;;;;;4389668;32;20532;-67
2022/08/16 04:05:22;;;;;;;16.30;5.82;;;;;;;;;;4390770;32;20190;-68
2022/08/16 04:07:48;;;;;;;13.45;6.75;;;;;;;;;;4393418;32;20500;-67
2022/08/16 04:10:16;;;;;;;17.23;6.07;;;;;;;;;;4393040;32;20105;-66
2022/08/16 04:12:44;;;;;;;13.07;6.03;;;;;;;;;;4393089;32;20595;-67
2022/08/16 04:15:13;;;;;;;11.25;6.18;;;;;;;;;;4380474;32;20087;-68
2022/08/16 04:17:40;;;;;;;14.27;6.53;;;;;;;;;;4392876;32;20081;-67
2022/08/16 04:20:08;;;;;;;13.50;7.20;;;;;;;;;;4393815;32;20066;-68
2022/08/16 04:22:35;;;;;;;13.13;5.53;;;;;;;;;;4392402;32;20089;-68
2022/08/16 04:25:03;;;;;;;11.70;5.62;;;;;;;;;;4379995;32;20093;-66
2022/08/16 04:27:29;;;;;;;15.13;5.65;;;;;;;;;;4393828;32;20425;-68
2022/08/16 04:29:56;;;;;;;15.30;5.97;;;;;;;;;;4393188;32;20146;-67
2022/08/16 04:32:23;;;;;;;14.57;5.80;;;;;;;;;;4393812;32;20155;-67
2022/08/16 04:34:50;;;;;;;13.23;6.07;;;;;;;;;;4392414;32;20086;-67
2022/08/16 04:37:17;;;;;;;9.65;5.20;;;;;;;;;;4393831;32;20084;-67
2022/08/16 04:39:43;;;;;;;10.85;5.10;;;;;;;;;;4392493;32;20085;-68
2022/08/16 04:42:10;;;;;;;22.17;7.18;;;;;;;;;;4393664;32;20092;-68
2022/08/16 04:44:37;;;;;;;13.50;5.57;;;;;;;;;;4393952;32;20181;-67
2022/08/16 04:47:04;;;;;;;13.65;6.32;;;;;;;;;;4394431;32;20076;-67
2022/08/16 04:52:06;;;;;;;15.75;6.03;;;;;;;;;;3857433;37;20054;-67
2022/08/16 04:54:32;;;;;;;11.20;5.22;;;;;;;;;;4418988;32;20081;-67
2022/08/16 04:56:59;;;;;;;13.70;5.97;;;;;;;;;;4405742;32;20465;-68
2022/08/16 04:59:26;;;;;;;13.13;5.65;;;;;;;;;;4418489;32;20579;-68
2022/08/16 05:01:55;;;;;;;10.65;5.57;;;;;;;;;;4418799;32;20085;-67
2022/08/16 05:04:23;;;;;;;13.00;5.32;;;;;;;;;;4419806;32;20575;-66
2022/08/16 05:06:50;;;;;;;14.75;5.18;;;;;;;;;;4419599;32;20095;-67
2022/08/16 05:09:20;;;;;;;15.98;5.57;;;;;;;;;;4405131;32;20517;-66
2022/08/16 05:11:46;;;;;;;17.15;6.70;;;;;;;;;;4419943;32;20161;-68
2022/08/16 05:14:13;;;;;;;12.50;5.90;;;;;;;;;;4419703;32;20591;-67
2022/08/16 05:16:40;;;;;;;12.13;5.65;;;;;;;;;;4418867;32;20153;-67
2022/08/16 05:19:07;;;;;;;15.73;7.62;;;;;;;;;;4405697;32;20589;-67
2022/08/16 05:21:36;;;;;;;12.80;6.62;;;;;;;;;;4418496;32;20069;-68
2022/08/16 05:24:03;;;;;;;16.77;5.80;;;;;;;;;;4418295;32;20069;-67
2022/08/16 05:26:31;;;;;;;14.52;6.15;;;;;;;;;;4405854;32;20273;-66
2022/08/16 05:28:58;;;;;;;18.00;7.15;;;;;;;;;;4419316;32;20154;-68
2022/08/16 05:31:26;;;;;;;18.85;7.32;;;;;;;;;;4418556;32;20077;-68
2022/08/16 05:33:53;;;;;;;16.75;7.43;;;;;;;;;;4418264;32;20085;-68
2022/08/16 05:36:20;;;;;;;16.05;7.00;;;;;;;;;;4419367;32;20499;-67
2022/08/16 05:38:47;;;;;;;16.48;7.03;;;;;;;;;;4418051;32;20083;-68
2022/08/16 05:41:14;;;;;;;10.48;5.72;;;;;;;;;;4392547;32;20097;-67
2022/08/16 05:43:41;;;;;;;9.75;5.00;;;;;;;;;;4417594;32;20162;-68
2022/08/16 05:46:08;;;;;;;9.95;4.68;;;;;;;;;;4405412;32;20072;-67
2022/08/16 05:48:34;;;;;;;7.50;4.07;;;;;;;;;;4417806;32;20097;-68
2022/08/16 05:51:01;;;;;;;8.98;4.57;;;;;;;;;;4418813;32;20153;-67
2022/08/16 05:53:27;;;;;;;5.87;3.92;;;;;;;;;;4419069;32;20648;-68
2022/08/16 05:55:54;;;;;;;6.87;3.35;;;;;;;;;;4419051;32;20081;-68
2022/08/16 05:58:21;;;;;;;7.35;3.75;;;;;;;;;;4405719;32;20149;-68
2022/08/16 06:00:47;;;;;;;7.35;3.87;;;;;;;;;;4417805;32;20165;-68
2022/08/16 06:03:14;;;;;;;7.30;3.47;;;;;;;;;;4410411;32;20100;-67
2022/08/16 06:05:41;;;;;;;7.57;4.00;;;;;;;;;;4413981;32;20074;-69
2022/08/16 06:08:07;;;;;;;10.65;4.15;;;;;;;;;;4411736;32;20092;-67
2022/08/16 06:10:34;;;;;;;7.40;4.00;;;;;;;;;;4406641;32;20074;-69
2022/08/16 06:13:02;;;;;;;8.55;4.03;;;;;;;;;;4407296;32;20093;-67
2022/08/16 06:15:28;;;;;;;8.45;3.65;;;;;;;;;;4394360;32;20069;-68
2022/08/16 06:17:57;;;;;;;7.18;3.80;;;;;;;;;;4394554;32;20163;-67
2022/08/16 06:20:25;;;;;;;7.95;3.87;;;;;;;;;;4407163;32;20077;-68
2022/08/16 06:22:56;;;;;;;8.10;3.90;;;;;;;;;;4407158;32;20078;-67
2022/08/16 06:25:24;;;;;;;11.82;4.32;;;;;;;;;;4394617;32;20499;-68
2022/08/16 06:27:52;;;;;;;7.12;4.20;;;;;;;;;;4408499;32;20167;-66
2022/08/16 06:30:18;;;;;;;7.95;4.43;;;;;;;;;;4407359;32;20136;-67
2022/08/16 06:32:45;;;;;;;6.47;4.25;;;;;;;;;;4408377;32;20077;-68
2022/08/16 06:35:14;;;;;;;7.15;4.20;;;;;;;;;;4394444;32;20083;-68
2022/08/16 06:37:41;;;;;;;6.00;3.42;;;;;;;;;;4406740;32;20092;-68
2022/08/16 06:40:09;;;;;;;4.78;2.92;;;;;;;;;;4408423;32;20073;-68
2022/08/16 06:42:36;;;;;;;8.80;4.60;;;;;;;;;;4407108;32;20088;-67
2022/08/16 06:45:03;;;;;;;9.50;3.35;;;;;;;;;;4407865;32;20083;-67
2022/08/16 06:47:30;;;;;;;7.47;3.35;;;;;;;;;;4394225;32;20080;-68
2022/08/16 06:49:56;;;;;;;6.87;3.30;;;;;;;;;;4406703;32;20089;-66
2022/08/16 06:52:23;;;;;;;5.45;3.15;;;;;;;;;;4406697;32;20085;-66
2022/08/16 06:54:50;;;;;;;5.65;3.20;;;;;;;;;;4406687;32;20096;-67
2022/08/16 06:57:18;;;;;;;6.30;3.20;;;;;;;;;;4394274;32;20087;-67
2022/08/16 06:59:46;;;;;;;7.07;3.08;;;;;;;;;;4406962;32;20504;-66
2022/08/16 07:02:12;;;;;;;5.75;3.15;;;;;;;;;;4393658;32;20089;-67
2022/08/16 07:04:41;;;;;;;4.25;3.10;;;;;;;;;;4406218;32;20081;-67
2022/08/16 07:07:08;;;;;;;7.05;3.60;;;;;;;;;;4393829;32;20158;-67
2022/08/16 07:09:35;;;;;;;4.57;3.10;;;;;;;;;;4407693;32;20081;-68
2022/08/16 07:12:02;;;;;;;7.82;2.65;;;;;;;;;;4406356;32;20085;-67
2022/08/16 07:14:29;;;;;;;4.03;2.83;;;;;;;;;;4405387;32;20085;-67
2022/08/16 07:16:56;;;;;;;6.82;3.25;;;;;;;;;;4406173;32;20456;-68
2022/08/16 07:19:24;;;;;;;4.93;2.87;;;;;;;;;;4392963;32;20535;-66
2022/08/16 07:21:50;;;;;;;4.55;2.97;;;;;;;;;;4407801;32;20184;-67
2022/08/16 07:24:17;;;;;;;6.55;3.12;;;;;;;;;;4407394;32;20069;-67
2022/08/16 07:26:44;;;;;;;6.60;2.92;;;;;;;;;;4407854;32;20077;-67
2022/08/16 07:29:10;;;;;;;5.18;3.30;;;;;;;;;;4407308;32;20503;-67
2022/08/16 07:31:37;;;;;;;5.57;3.00;;;;;;;;;;4393213;32;20497;-67
2022/08/16 07:34:04;;;;;;;5.20;2.90;;;;;;;;;;4405529;32;20532;-68
2022/08/16 07:36:30;;;;;;;5.57;2.97;;;;;;;;;;4407411;32;20084;-68
2022/08/16 07:38:57;;;;;;;4.80;2.97;;;;;;;;;;4406035;32;20080;-67
2022/08/16 07:41:24;;;;;;;6.25;3.10;;;;;;;;;;4408814;32;20481;-68
2022/08/16 07:43:50;;;;;;;4.55;3.17;;;;;;;;;;4409306;32;20081;-68
2022/08/16 07:46:17;;;;;;;4.30;2.87;;;;;;;;;;4408973;32;20165;-67
2022/08/16 07:48:44;;;;;;;5.55;3.00;;;;;;;;;;4406978;32;20084;-66
2022/08/16 07:51:11;;;;;;;4.68;2.92;;;;;;;;;;4392796;32;20082;-67
2022/08/16 07:53:37;;;;;;;10.73;3.20;;;;;;;;;;4407133;32;20092;-66
2022/08/16 07:56:05;;;;;;;8.45;2.87;;;;;;;;;;4406504;32;20073;-68
2022/08/16 07:58:32;;;;;;;5.75;3.03;;;;;;;;;;4405161;32;20172;-67
2022/08/16 08:01:00;;;;;;;3.87;2.92;;;;;;;;;;4411802;32;20073;-66
2022/08/16 08:03:27;;;;;;;7.12;3.10;;;;;;;;;;4393238;32;20081;-66
2022/08/16 08:05:53;;;;;;;6.15;2.85;;;;;;;;;;4407993;32;20089;-67
2022/08/16 08:08:20;;;;;;;6.97;3.37;;;;;;;;;;4409464;32;20085;-67
2022/08/16 08:10:47;;;;;;;6.32;2.97;;;;;;;;;;4411627;32;20097;-67
2022/08/16 08:13:15;;;;;;;6.25;2.92;;;;;;;;;;4411949;32;20141;-67
2022/08/16 08:15:41;;;;;;;3.70;2.12;;;;;;;;;;4406746;32;20073;-67
2022/08/16 08:18:08;;;;;;;4.75;2.97;;;;;;;;;;4411849;32;20188;-67
2022/08/16 08:20:35;;;;;;;7.00;3.10;;;;;;;;;;4409386;32;20503;-67
2022/08/16 08:23:02;;;;;;;5.35;2.97;;;;;;;;;;4409501;32;20581;-68
2022/08/16 08:25:31;;;;;;;4.57;2.97;;;;;;;;;;4399192;32;20153;-67
2022/08/16 08:27:59;;;;;;;5.28;2.90;;;;;;;;;;4415350;32;20064;-67
2022/08/16 08:30:25;;;;;;;5.40;3.42;;;;;;;;;;4393388;32;20093;-67
2022/08/16 08:32:54;;;;;;;7.00;3.53;;;;;;;;;;4404966;32;20458;-67
2022/08/16 08:35:21;;;;;;;4.00;2.85;;;;;;;;;;4406681;32;20078;-67
2022/08/16 08:37:47;;;;;;;4.93;2.78;;;;;;;;;;4405203;32;20074;-68
2022/08/16 08:40:14;;;;;;;5.05;2.80;;;;;;;;;;4405413;32;20076;-67
2022/08/16 08:42:42;;;;;;;7.62;3.20;;;;;;;;;;4410839;32;20081;-67
2022/08/16 08:45:11;;;;;;;4.30;2.90;;;;;;;;;;4408607;32;20069;-67
2022/08/16 08:47:38;;;;;;;3.67;2.60;;;;;;;;;;4392552;32;20074;-67
2022/08/16 08:50:05;;;;;;;5.12;2.83;;;;;;;;;;4404849;32;20506;-67
2022/08/16 08:52:32;;;;;;;6.37;3.45;;;;;;;;;;4406605;32;20167;-66
2022/08/16 08:55:00;;;;;;;4.43;2.90;;;;;;;;;;4392255;32;20510;-67
2022/08/16 08:57:27;;;;;;;7.00;3.20;;;;;;;;;;4406215;32;20058;-67
2022/08/16 08:59:53;;;;;;;4.53;3.05;;;;;;;;;;4405159;32;20580;-69
2022/08/16 09:02:20;;;;;;;10.48;3.10;;;;;;;;;;4392354;32;20144;-67
2022/08/16 09:04:47;;;;;;;5.28;2.92;;;;;;;;;;4405288;32;20105;-67
2022/08/16 09:07:14;;;;;;;3.62;2.62;;;;;;;;;;4406313;32;20227;-66
2022/08/16 09:09:40;;;;;;;4.43;2.72;;;;;;;;;;4392301;32;20169;-68
2022/08/16 09:12:07;;;;;;;4.55;2.55;;;;;;;;;;4406030;32;20184;-68
2022/08/16 09:14:38;;;;;;;7.03;2.90;;;;;;;;;;4392327;32;20512;-68
2022/08/16 09:17:05;;;;;;;5.53;3.17;;;;;;;;;;4379922;32;20070;-68
2022/08/16 09:19:35;;;;;;;3.95;2.97;;;;;;;;;;4404744;32;20519;-67
2022/08/16 09:22:03;;;;;;;5.35;2.97;;;;;;;;;;4379871;32;20081;-66
2022/08/16 09:24:30;;;;;;;5.20;2.85;;;;;;;;;;4379761;32;20113;-68
2022/08/16 09:26:57;;;;;;;6.00;2.62;;;;;;;;;;4392821;32;20097;-67
2022/08/16 09:29:24;;;;;;;5.93;3.22;;;;;;;;;;4406481;32;20158;-68
2022/08/16 09:31:50;;;;;;;3.72;2.62;;;;;;;;;;4405855;32;20152;-67
2022/08/16 09:34:17;;;;;;;3.47;2.53;;;;;;;;;;4392076;32;20097;-67
2022/08/16 09:36:44;;;;;;;4.60;2.70;;;;;;;;;;4406036;32;20533;-68
2022/08/16 09:39:10;;;;;;;4.70;3.10;;;;;;;;;;4407619;32;20078;-67
2022/08/16 09:41:37;;;;;;;3.87;2.87;;;;;;;;;;4395707;32;20112;-68
2022/08/16 09:44:05;;;;;;;6.37;3.20;;;;;;;;;;4407544;32;20066;-68
2022/08/16 09:46:32;;;;;;;7.40;3.00;;;;;;;;;;4408757;32;20503;-67
2022/08/16 09:48:59;;;;;;;6.10;2.92;;;;;;;;;;4408918;32;20099;-67
2022/08/16 09:51:26;;;;;;;5.05;3.47;;;;;;;;;;4406910;32;20119;-68
2022/08/16 09:53:54;;;;;;;3.87;2.85;;;;;;;;;;4407742;32;20089;-67
2022/08/16 09:56:32;;;;;;;4.12;3.03;;;;;;;;;;4407397;32;20089;-67
2022/08/16 09:59:01;;;;;;;5.78;2.92;;;;;;;;;;4394588;32;20141;-66
2022/08/16 10:01:32;;;;;;;5.65;3.53;;;;;;;;;;4407137;32;20471;-67
2022/08/16 10:03:59;;;;;;;5.62;2.72;;;;;;;;;;4394431;32;20097;-68
2022/08/16 10:06:26;;;;;;;4.22;2.87;;;;;;;;;;4395160;32;20085;-68
2022/08/16 10:08:53;;;;;;;5.53;3.10;;;;;;;;;;4394467;32;20074;-67
2022/08/16 10:14:05;;;;;;;3.15;2.45;;;;;;;;;;4407261;32;20460;-69
2022/08/16 10:16:32;;;;;;;3.42;2.65;;;;;;;;;;4407213;32;20084;-68
2022/08/16 10:18:59;;;;;;;5.60;3.47;;;;;;;;;;4406591;32;20069;-67
2022/08/16 10:21:27;;;;;;;4.53;2.90;;;;;;;;;;4408174;32;20077;-66
2022/08/16 10:23:54;;;;;;;4.45;2.85;;;;;;;;;;4394217;32;20085;-67
2022/08/16 10:26:24;;;;;;;7.12;3.22;;;;;;;;;;4394350;32;20160;-67
2022/08/16 10:28:51;;;;;;;4.68;2.90;;;;;;;;;;4394201;32;20093;-68
2022/08/16 10:31:18;;;;;;;5.35;2.85;;;;;;;;;;4407470;32;20500;-68
2022/08/16 10:33:45;;;;;;;6.05;3.03;;;;;;;;;;4394262;32;20167;-68
2022/08/16 10:36:12;;;;;;;6.40;3.60;;;;;;;;;;4393594;32;20613;-67
2022/08/16 10:38:39;;;;;;;3.40;2.22;;;;;;;;;;4394808;32;20070;-67
2022/08/16 10:41:07;;;;;;;4.28;2.80;;;;;;;;;;4393947;32;20181;-68
2022/08/16 10:43:38;;;;;;;5.03;2.80;;;;;;;;;;4406366;32;20194;-68
2022/08/16 10:46:10;;;;;;;5.00;3.00;;;;;;;;;;4394735;32;20168;-68
2022/08/16 10:48:39;;;;;;;4.72;2.60;;;;;;;;;;4406999;32;20083;-67
2022/08/16 10:51:06;;;;;;;4.78;3.12;;;;;;;;;;4393519;32;20535;-68
2022/08/16 10:53:33;;;;;;;4.57;2.70;;;;;;;;;;4406607;32;20077;-67
2022/08/16 10:56:09;;;;;;;3.28;2.80;;;;;;;;;;4381742;32;20089;-68
2022/08/16 10:58:39;;;;;;;3.72;2.70;;;;;;;;;;4406543;32;20070;-67
2022/08/16 11:01:07;;;;;;;5.45;3.10;;;;;;;;;;4406212;32;20072;-68
2022/08/16 11:03:35;;;;;;;8.60;3.37;;;;;;;;;;4393680;32;20081;-67
2022/08/16 11:06:03;;;;;;;4.15;2.65;;;;;;;;;;4406417;32;20088;-68
2022/08/16 11:08:30;;;;;;;6.20;2.80;;;;;;;;;;4380928;32;20108;-68
2022/08/16 11:10:57;;;;;;;4.10;2.45;;;;;;;;;;4394098;32;20096;-67
2022/08/16 11:13:25;;;;;;;3.37;2.62;;;;;;;;;;4393567;32;20069;-67
2022/08/16 11:15:54;;;;;;;7.05;2.87;;;;;;;;;;4394188;32;20092;-67
2022/08/16 11:18:21;;;;;;;5.22;2.90;;;;;;;;;;4394089;32;20080;-67
2022/08/16 11:20:49;;;;;;;4.12;3.03;;;;;;;;;;4395964;32;20508;-68
2022/08/16 11:23:16;;;;;;;5.82;2.85;;;;;;;;;;4411158;32;20084;-67
2022/08/16 11:25:42;;;;;;;3.33;2.60;;;;;;;;;;4406342;32;20096;-67
2022/08/16 11:28:09;;;;;;;2.78;2.33;;;;;;;;;;4393484;32;20080;-67
2022/08/16 11:30:37;;;;;;;4.75;2.70;;;;;;;;;;4407310;32;20074;-67
2022/08/16 11:33:03;;;;;;;3.45;2.62;;;;;;;;;;4405866;32;20064;-66
2022/08/16 11:35:31;;;;;;;5.80;2.70;;;;;;;;;;4405842;32;20089;-67
2022/08/16 11:38:01;;;;;;;5.55;2.60;;;;;;;;;;4405601;32;20080;-67
2022/08/16 11:40:33;;;;;;;3.35;2.62;;;;;;;;;;4393339;32;20093;-68
2022/08/16 11:43:00;;;;;;;4.37;2.70;;;;;;;;;;4405702;32;20254;-68
2022/08/16 11:45:27;;;;;;;4.90;2.80;;;;;;;;;;4406191;32;20073;-67
2022/08/16 11:47:54;;;;;;;4.28;2.90;;;;;;;;;;4405619;32;20124;-68
2022/08/16 11:50:23;;;;;;;5.40;2.72;;;;;;;;;;4393123;32;20170;-67
2022/08/16 11:52:50;;;;;;;6.05;2.97;;;;;;;;;;4394465;32;20204;-67
2022/08/16 11:55:17;;;;;;;4.25;2.85;;;;;;;;;;4380396;32;20061;-69
2022/08/16 11:57:43;;;;;;;5.45;2.97;;;;;;;;;;4405355;32;20520;-68
2022/08/16 12:00:13;;;;;;;6.05;2.90;;;;;;;;;;4405043;32;20077;-67
2022/08/16 12:02:40;;;;;;;5.87;2.60;;;;;;;;;;4405392;32;20097;-68
2022/08/16 12:05:10;;;;;;;4.40;2.90;;;;;;;;;;4392732;32;20156;-67
2022/08/16 12:07:39;;;;;;;4.50;2.55;;;;;;;;;;4393264;32;20142;-68
2022/08/16 12:10:10;;;;;;;4.28;2.85;;;;;;;;;;4405306;32;20141;-68
2022/08/16 12:12:37;;;;;;;3.20;2.40;;;;;;;;;;4405598;32;20515;-67
2022/08/16 12:15:04;;;;;;;4.72;2.92;;;;;;;;;;4392941;32;20089;-67
2022/08/16 12:17:32;;;;;;;4.37;2.83;;;;;;;;;;4405569;32;20085;-68
2022/08/16 12:20:00;;;;;;;3.08;2.55;;;;;;;;;;4406794;32;20077;-68
2022/08/16 12:22:27;;;;;;;3.12;2.60;;;;;;;;;;4392927;32;20111;-68
2022/08/16 12:24:53;;;;;;;2.72;2.40;;;;;;;;;;4405163;32;20165;-68
2022/08/16 12:27:22;;;;;;;5.40;2.72;;;;;;;;;;4405386;32;20156;-66
2022/08/16 12:29:52;;;;;;;5.70;2.80;;;;;;;;;;4379749;32;20593;-68
2022/08/16 12:32:19;;;;;;;4.40;2.62;;;;;;;;;;4406542;32;20152;-67
2022/08/16 12:34:46;;;;;;;4.00;2.60;;;;;;;;;;4392771;32;20082;-67
2022/08/16 12:37:14;;;;;;;3.03;2.47;;;;;;;;;;4405424;32;20080;-67
2022/08/16 12:39:40;;;;;;;5.05;2.70;;;;;;;;;;4406614;32;20089;-68
2022/08/16 12:42:08;;;;;;;5.28;2.90;;;;;;;;;;4404837;32;20081;-68
2022/08/16 12:44:36;;;;;;;4.68;2.25;;;;;;;;;;4392718;32;20101;-68
2022/08/16 12:49:48;;;;;;;;;;;;;;;;;;4405263;32;20073;-67
2022/08/16 12:52:15;;;;;;;;;;;;;;;;;;4407641;32;19985;-67
2022/08/16 12:54:41;;;;;;;;;;;;;;;;;;4405110;32;20403;-67
2022/08/16 12:57:08;;;;;;;;;;;;;;;;;;4392762;32;20061;-67
2022/08/16 12:59:35;;;;;;;;;;;;;;;;;;4407053;32;19960;-67
2022/08/16 13:02:04;;;;;;;3.62;2.10;;;;;;;;;;4406713;32;19980;-67
2022/08/16 13:04:32;;;;;;;3.58;2.35;;;;;;;;;;4404873;32;20073;-68
2022/08/16 13:06:59;;;;;;;3.35;2.42;;;;;;;;;;4405026;32;20101;-67
2022/08/16 13:09:28;;;;;;;3.47;2.60;;;;;;;;;;4404620;32;20160;-66
2022/08/16 13:12:02;;;;;;;6.32;2.50;;;;;;;;;;4393119;32;20073;-68
2022/08/16 13:14:38;;;;;;;3.62;2.72;;;;;;;;;;4408378;32;20082;-67
2022/08/16 13:17:07;;;;;;;7.10;2.87;;;;;;;;;;4408058;32;20100;-66
2022/08/16 13:19:35;;;;;;;4.68;2.58;;;;;;;;;;4407799;32;20233;-67
2022/08/16 13:22:02;;;;;;;3.65;2.50;;;;;;;;;;4394939;32;20563;-67
2022/08/16 13:24:28;;;;;;;5.87;2.78;;;;;;;;;;4407987;32;20076;-67
2022/08/16 13:26:55;;;;;;;3.65;2.30;;;;;;;;;;4407845;32;20065;-68
2022/08/16 13:29:22;;;;;;;5.62;2.58;;;;;;;;;;4394957;32;20156;-67
2022/08/16 13:31:48;;;;;;;4.12;2.70;;;;;;;;;;4394916;32;20073;-68
2022/08/16 13:34:15;;;;;;;3.17;2.37;;;;;;;;;;4409145;32;20062;-69
2022/08/16 13:36:42;;;;;;;4.22;2.53;;;;;;;;;;4395299;32;20096;-68
2022/08/16 13:39:09;;;;;;;5.18;2.80;;;;;;;;;;4408888;32;20082;-67
2022/08/16 13:41:37;;;;;;;6.03;3.08;;;;;;;;;;4407807;32;20478;-68
2022/08/16 13:44:04;;;;;;;3.67;2.55;;;;;;;;;;4395030;32;20116;-67
2022/08/16 13:46:32;;;;;;;7.07;2.60;;;;;;;;;;4382322;32;20208;-66
2022/08/16 13:48:59;;;;;;;3.65;2.60;;;;;;;;;;4407355;32;20065;-67
2022/08/16 13:51:26;;;;;;;3.92;2.83;;;;;;;;;;4407086;32;20149;-67
2022/08/16 13:53:56;;;;;;;2.87;2.35;;;;;;;;;;4408196;32;20077;-67
2022/08/16 13:56:23;;;;;;;3.42;2.28;;;;;;;;;;4412208;32;20073;-68
2022/08/16 13:58:50;;;;;;;3.40;2.72;;;;;;;;;;4412495;32;20081;-68
2022/08/16 14:01:18;;;;;;;4.57;3.67;;;;;;;;;;4408736;32;20080;-68
2022/08/16 14:03:45;;;;;;;3.95;2.95;;;;;;;;;;4407403;32;20507;-67
2022/08/16 14:06:12;;;;;;;5.68;2.65;;;;;;;;;;4407269;32;20149;-67
2022/08/16 14:08:40;;;;;;;6.40;2.75;;;;;;;;;;4408766;32;20238;-67
2022/08/16 14:11:09;;;;;;;9.23;2.95;;;;;;;;;;4406952;32;20103;-67
2022/08/16 14:13:35;;;;;;;4.05;2.67;;;;;;;;;;4407316;32;20100;-67
2022/08/16 14:16:02;;;;;;;5.10;2.75;;;;;;;;;;4407176;32;20077;-68
2022/08/16 14:18:29;;;;;;;3.90;2.67;;;;;;;;;;4406942;32;20073;-68
2022/08/16 14:20:57;;;;;;;3.85;2.92;;;;;;;;;;4407440;32;20072;-68
2022/08/16 14:23:24;;;;;;;4.00;2.65;;;;;;;;;;4408726;32;20070;-67
2022/08/16 14:25:51;;;;;;;5.50;3.12;;;;;;;;;;4394626;32;20091;-67
2022/08/16 14:28:18;;;;;;;8.38;2.85;;;;;;;;;;4394599;32;20089;-67
2022/08/16 14:30:44;;;;;;;4.07;2.78;;;;;;;;;;4394084;32;20189;-67
2022/08/16 14:33:11;;;;;;;5.93;3.03;;;;;;;;;;4407037;32;20094;-67
2022/08/16 14:35:38;;;;;;;6.95;3.10;;;;;;;;;;4394355;32;20093;-67
2022/08/16 14:38:05;;;;;;;4.62;2.45;;;;;;;;;;4406520;32;20529;-67
2022/08/16 14:40:32;;;;;;;5.47;2.95;;;;;;;;;;4406649;32;20077;-67
2022/08/16 14:42:59;;;;;;;8.20;2.75;;;;;;;;;;4406497;32;20086;-68
2022/08/16 14:45:28;;;;;;;4.90;3.03;;;;;;;;;;4407850;32;20100;-67
2022/08/16 14:47:55;;;;;;;6.75;3.55;;;;;;;;;;4394032;32;20093;-68
2022/08/16 14:50:24;;;;;;;6.62;2.97;;;;;;;;;;4407100;32;20092;-68